createdAt,value
2023-03-15T00:01:44.149Z,551.00
2023-03-15T00:05:43.763Z,538.00
2023-03-15T00:09:43.440Z,541.00
2023-03-15T00:13:43.075Z,562.00
2023-03-15T00:17:42.740Z,555.00
2023-03-15T00:21:42.412Z,535.00
2023-03-15T00:25:42.041Z,545.00
2023-03-15T00:29:41.792Z,530.00
2023-03-15T00:33:41.423Z,584.00
2023-03-15T00:37:41.084Z,609.00
2023-03-15T00:41:40.737Z,605.00
2023-03-15T00:45:40.374Z,618.00
2023-03-15T00:49:40.066Z,611.00
2023-03-15T00:53:39.715Z,617.00
2023-03-15T00:57:39.405Z,577.00
2023-03-15T01:01:39.268Z,520.00
2023-03-15T01:05:39.077Z,540.00
2023-03-15T01:09:38.856Z,535.00
2023-03-15T01:13:38.672Z,530.00
2023-03-15T01:17:38.459Z,549.00
2023-03-15T01:21:38.266Z,549.00
2023-03-15T01:25:38.075Z,524.00
2023-03-15T01:29:37.880Z,524.00
2023-03-15T01:33:37.686Z,503.00
2023-03-15T01:37:37.496Z,506.00
2023-03-15T01:41:37.307Z,553.00
2023-03-15T01:45:37.091Z,558.00
2023-03-15T01:49:36.924Z,558.00
2023-03-15T01:53:36.720Z,522.00
2023-03-15T01:57:36.523Z,548.00
2023-03-15T02:01:36.323Z,574.00
2023-03-15T02:05:36.204Z,518.00
2023-03-15T02:09:36.004Z,500.00
2023-03-15T02:13:35.790Z,538.00
2023-03-15T02:17:35.646Z,536.00
2023-03-15T02:21:35.491Z,516.00
2023-03-15T02:25:35.309Z,521.00
2023-03-15T02:29:35.136Z,557.00
2023-03-15T02:33:34.958Z,563.00
2023-03-15T02:37:34.786Z,561.00
2023-03-15T02:41:34.653Z,564.00
2023-03-15T02:45:34.505Z,583.00
2023-03-15T02:49:34.328Z,595.00
2023-03-15T02:53:34.179Z,592.00
2023-03-15T02:57:34.041Z,591.00
2023-03-15T03:01:33.904Z,604.00
2023-03-15T03:05:33.720Z,584.00
2023-03-15T03:09:33.632Z,561.00
2023-03-15T03:13:33.407Z,528.00
2023-03-15T03:17:33.290Z,537.00
2023-03-15T03:21:33.067Z,531.00
2023-03-15T03:25:32.860Z,538.00
2023-03-15T03:29:32.708Z,565.00
2023-03-15T03:33:32.566Z,569.00
2023-03-15T03:37:32.892Z,571.00
2023-03-15T03:41:32.213Z,555.00
2023-03-15T03:45:32.054Z,559.00
2023-03-15T03:49:31.909Z,571.00
2023-03-15T03:53:31.781Z,563.00
2023-03-15T03:57:31.657Z,578.00
2023-03-15T04:01:31.551Z,574.00
2023-03-15T04:05:31.384Z,577.00
2023-03-15T04:09:31.268Z,579.00
2023-03-15T04:13:31.119Z,526.00
2023-03-15T04:17:30.941Z,606.00
2023-03-15T04:21:30.791Z,585.00
2023-03-15T04:25:30.684Z,583.00
2023-03-15T04:29:30.558Z,568.00
2023-03-15T04:33:30.435Z,516.00
2023-03-15T04:37:30.311Z,569.00
2023-03-15T04:41:30.257Z,540.00
2023-03-15T04:45:30.113Z,518.00
2023-03-15T04:49:30.030Z,557.00
2023-03-15T04:53:29.935Z,593.00
2023-03-15T04:57:29.823Z,536.00
2023-03-15T05:01:29.470Z,521.00
2023-03-15T05:05:29.117Z,499.00
2023-03-15T05:09:28.802Z,532.00
2023-03-15T05:13:28.429Z,590.00
2023-03-15T05:17:28.065Z,664.00
2023-03-15T05:21:27.704Z,723.00
2023-03-15T05:25:27.350Z,587.00
2023-03-15T05:29:27.018Z,530.00
2023-03-15T05:33:26.673Z,556.00
2023-03-15T05:37:26.293Z,730.00
2023-03-15T05:41:26.145Z,635.00
2023-03-15T05:45:25.812Z,607.00
2023-03-15T05:49:25.502Z,675.00
2023-03-15T05:53:25.087Z,878.00
2023-03-15T05:57:24.729Z,888.00
2023-03-15T06:01:24.352Z,995.00
2023-03-15T06:05:24.002Z,1101.00
2023-03-15T06:09:23.647Z,1159.00
2023-03-15T06:13:23.321Z,1284.00
2023-03-15T06:17:22.937Z,1430.00
2023-03-15T06:21:22.609Z,1468.00
2023-03-15T06:25:22.204Z,1450.00
2023-03-15T06:29:21.863Z,1508.00
2023-03-15T06:33:21.514Z,1633.00
2023-03-15T06:37:34.137Z,1642.00
2023-03-15T06:41:21.984Z,1699.00
2023-03-15T06:45:20.558Z,1801.00
2023-03-15T06:49:20.096Z,1737.00
2023-03-15T06:53:19.727Z,1725.00
2023-03-15T06:57:20.015Z,1742.00
2023-03-15T07:01:19.564Z,1742.00
2023-03-15T07:05:18.835Z,1728.00
2023-03-15T07:09:18.974Z,1692.00
2023-03-15T07:13:18.525Z,1594.00
2023-03-15T07:17:18.204Z,1496.00
2023-03-15T07:21:18.512Z,1451.00
2023-03-15T07:25:17.662Z,1392.00
2023-03-15T07:29:17.377Z,1362.00
2023-03-15T07:33:17.517Z,1201.00
2023-03-15T07:37:16.949Z,1126.00
2023-03-15T07:41:16.377Z,1207.00
2023-03-15T07:45:16.486Z,1191.00
2023-03-15T07:49:15.982Z,1086.00
2023-03-15T07:53:15.676Z,1212.00
2023-03-15T07:57:15.280Z,1524.00
2023-03-15T08:01:14.880Z,1561.00
2023-03-15T08:05:14.998Z,1408.00
2023-03-15T08:09:14.118Z,1219.00
2023-03-15T08:13:13.765Z,1345.00
2023-03-15T08:17:13.376Z,1261.00
2023-03-15T08:21:12.956Z,1233.00
2023-03-15T08:25:12.605Z,1285.00
2023-03-15T08:29:12.482Z,1173.00
2023-03-15T08:33:11.853Z,1251.00
2023-03-15T08:37:11.491Z,1169.00
2023-03-15T08:41:11.591Z,1152.00
2023-03-15T08:45:11.069Z,1429.00
2023-03-15T08:49:10.989Z,1550.00
2023-03-15T08:53:10.402Z,1642.00
2023-03-15T08:57:10.507Z,1638.00
2023-03-15T09:01:10.109Z,1671.00
2023-03-15T09:05:10.003Z,1636.00
2023-03-15T09:09:09.871Z,1622.00
2023-03-15T09:13:09.720Z,1548.00
2023-03-15T09:17:09.707Z,1573.00
2023-03-15T09:21:09.541Z,1593.00
2023-03-15T09:25:09.259Z,1578.00
2023-03-15T09:29:09.120Z,1656.00
2023-03-15T09:33:08.997Z,1649.00
2023-03-15T09:37:09.030Z,1810.00
2023-03-15T09:41:09.075Z,2022.00
2023-03-15T09:45:08.447Z,2172.00
2023-03-15T09:49:08.552Z,2354.00
2023-03-15T09:53:08.139Z,2397.00
2023-03-15T09:57:08.022Z,2460.00
2023-03-15T10:01:07.758Z,2456.00
2023-03-15T10:05:07.637Z,2378.00
2023-03-15T10:09:07.376Z,2334.00
2023-03-15T10:13:07.204Z,2223.00
2023-03-15T10:17:07.554Z,2160.00
2023-03-15T10:21:07.701Z,2122.00
2023-03-15T10:25:06.743Z,2204.00
2023-03-15T10:29:06.552Z,2325.00
2023-03-15T10:33:06.539Z,2145.00
2023-03-15T10:37:06.160Z,2209.00
2023-03-15T10:41:06.157Z,2137.00
2023-03-15T10:45:06.595Z,2259.00
2023-03-15T10:49:05.583Z,2254.00
2023-03-15T10:53:05.299Z,2287.00
2023-03-15T10:57:05.054Z,2349.00
2023-03-15T11:01:04.862Z,2340.00
2023-03-15T11:05:05.135Z,2332.00
2023-03-15T11:09:04.403Z,2322.00
2023-03-15T11:13:04.238Z,2319.00
2023-03-15T11:17:04.036Z,2281.00
2023-03-15T11:21:04.057Z,2298.00
2023-03-15T11:25:03.725Z,2199.00
2023-03-15T11:29:03.536Z,2259.00
2023-03-15T11:33:03.644Z,2237.00
2023-03-15T11:37:08.527Z,2109.00
2023-03-15T11:41:04.069Z,2068.00
2023-03-15T11:45:02.841Z,2129.00
2023-03-15T11:49:03.189Z,2117.00
2023-03-15T11:53:02.464Z,2100.00
2023-03-15T11:57:02.589Z,2125.00
2023-03-15T12:01:02.035Z,2149.00
2023-03-15T12:05:12.452Z,1974.00
2023-03-15T12:09:02.383Z,2009.00
2023-03-15T12:13:01.026Z,2005.00
2023-03-15T12:17:00.751Z,1973.00
2023-03-15T12:21:00.514Z,1910.00
2023-03-15T12:25:00.319Z,1876.00
2023-03-15T12:29:00.107Z,1828.00
2023-03-15T12:33:00.092Z,1652.00
2023-03-15T12:36:59.653Z,1885.00
2023-03-15T12:40:59.479Z,1796.00
2023-03-15T12:44:59.309Z,1778.00
2023-03-15T12:48:59.170Z,1876.00
2023-03-15T12:52:58.980Z,1780.00
2023-03-15T12:56:58.775Z,1665.00
2023-03-15T13:00:58.607Z,1747.00
2023-03-15T13:04:58.412Z,1696.00
2023-03-15T13:08:58.189Z,1544.00
2023-03-15T13:12:58.094Z,1587.00
2023-03-15T13:16:57.874Z,1571.00
2023-03-15T13:20:57.698Z,1527.00
2023-03-15T13:24:57.605Z,1528.00
2023-03-15T13:28:57.307Z,1565.00
2023-03-15T13:32:57.111Z,1590.00
2023-03-15T13:36:56.833Z,1568.00
2023-03-15T13:40:56.566Z,1541.00
2023-03-15T13:44:56.349Z,1444.00
2023-03-15T13:48:56.222Z,1400.00
2023-03-15T13:52:55.948Z,1351.00
2023-03-15T13:56:55.779Z,1305.00
2023-03-15T14:00:55.580Z,1245.00
2023-03-15T14:04:55.368Z,1238.00
2023-03-15T14:08:55.168Z,1318.00
2023-03-15T14:12:55.019Z,1185.00
2023-03-15T14:17:04.964Z,1161.00
2023-03-15T14:20:55.409Z,1201.00
2023-03-15T14:24:54.088Z,1323.00
2023-03-15T14:28:53.717Z,1317.00
2023-03-15T14:32:53.412Z,1221.00
2023-03-15T14:36:53.110Z,1124.00
2023-03-15T14:40:52.965Z,1053.00
2023-03-15T14:44:52.810Z,793.00
2023-03-15T14:48:52.670Z,670.00
2023-03-15T14:52:52.532Z,945.00
2023-03-15T14:56:52.438Z,1010.00
2023-03-15T15:00:52.287Z,1066.00
2023-03-15T15:04:52.022Z,1107.00
2023-03-15T15:08:51.815Z,918.00
2023-03-15T15:13:04.920Z,1044.00
2023-03-15T15:16:52.436Z,1079.00
2023-03-15T15:20:50.938Z,1111.00
2023-03-15T15:24:51.488Z,1106.00
2023-03-15T15:28:50.506Z,1090.00
2023-03-15T15:32:50.415Z,1062.00
2023-03-15T15:36:50.153Z,1051.00
2023-03-15T15:40:49.993Z,1093.00
2023-03-15T15:44:49.841Z,1045.00
2023-03-15T15:48:49.672Z,1020.00
2023-03-15T15:52:49.484Z,1048.00
2023-03-15T15:56:49.356Z,1096.00
2023-03-15T16:00:49.155Z,1094.00
2023-03-15T16:04:48.980Z,1098.00
2023-03-15T16:08:48.823Z,1059.00
2023-03-15T16:12:48.659Z,1093.00
2023-03-15T16:16:48.454Z,1063.00
2023-03-15T16:20:48.310Z,1031.00
2023-03-15T16:24:48.119Z,1092.00
2023-03-15T16:28:47.956Z,1088.00
2023-03-15T16:32:47.838Z,1079.00
2023-03-15T16:36:49.439Z,1022.00
2023-03-15T16:40:47.548Z,1005.00
2023-03-15T16:44:47.395Z,956.00
2023-03-15T16:48:47.224Z,982.00
2023-03-15T16:52:47.038Z,1037.00
2023-03-15T16:56:46.881Z,1038.00
2023-03-15T17:00:46.797Z,1039.00
2023-03-15T17:04:46.664Z,990.00
2023-03-15T17:08:46.451Z,1103.00
2023-03-15T17:12:46.317Z,1108.00
2023-03-15T17:16:46.114Z,1082.00
2023-03-15T17:20:45.981Z,1151.00
2023-03-15T17:24:45.854Z,1071.00
2023-03-15T17:28:45.642Z,1037.00
2023-03-15T17:32:45.545Z,1067.00
2023-03-15T17:36:45.347Z,1053.00
2023-03-15T17:40:45.237Z,1105.00
2023-03-15T17:44:45.039Z,1086.00
2023-03-15T17:48:44.961Z,1103.00
2023-03-15T17:52:44.824Z,1109.00
2023-03-15T17:56:44.724Z,1094.00
2023-03-15T18:00:44.609Z,996.00
2023-03-15T18:04:44.522Z,874.00
2023-03-15T18:08:44.142Z,713.00
2023-03-15T18:12:43.844Z,689.00
2023-03-15T18:16:43.525Z,727.00
2023-03-15T18:20:43.070Z,897.00
2023-03-15T18:24:44.382Z,865.00
2023-03-15T18:28:42.374Z,826.00
2023-03-15T18:32:41.997Z,831.00
2023-03-15T18:36:41.620Z,820.00
2023-03-15T18:40:41.235Z,810.00
2023-03-15T18:44:40.844Z,932.00
2023-03-15T18:48:41.244Z,866.00
2023-03-15T18:52:40.115Z,916.00
2023-03-15T18:56:39.752Z,802.00
2023-03-15T19:00:39.330Z,755.00
2023-03-15T19:04:38.997Z,748.00
2023-03-15T19:08:38.596Z,754.00
2023-03-15T19:12:38.266Z,749.00
2023-03-15T19:16:37.928Z,642.00
2023-03-15T19:20:37.482Z,649.00
2023-03-15T19:24:37.122Z,624.00
2023-03-15T19:28:37.693Z,633.00
2023-03-15T19:32:36.465Z,631.00
2023-03-15T19:36:36.041Z,570.00
2023-03-15T19:40:35.658Z,580.00
2023-03-15T19:44:35.291Z,602.00
2023-03-15T19:48:34.920Z,579.00
2023-03-15T19:52:34.537Z,566.00
2023-03-15T19:56:34.147Z,534.00
2023-03-15T20:00:33.820Z,552.00
2023-03-15T20:04:33.425Z,530.00
2023-03-15T20:08:33.041Z,550.00
2023-03-15T20:12:32.781Z,542.00
2023-03-15T20:16:32.642Z,554.00
2023-03-15T20:20:32.349Z,531.00
2023-03-15T20:24:32.746Z,525.00
2023-03-15T20:28:31.961Z,506.00
2023-03-15T20:32:31.767Z,570.00
2023-03-15T20:36:33.394Z,577.00
2023-03-15T20:40:31.353Z,544.00
2023-03-15T20:44:31.135Z,588.00
2023-03-15T20:48:31.054Z,607.00
2023-03-15T20:52:30.684Z,581.00
2023-03-15T20:56:30.529Z,590.00
2023-03-15T21:00:30.381Z,541.00
2023-03-15T21:04:30.164Z,519.00
2023-03-15T21:08:30.020Z,585.00
2023-03-15T21:12:29.865Z,583.00
2023-03-15T21:16:29.717Z,582.00
2023-03-15T21:20:29.496Z,584.00
2023-03-15T21:24:29.303Z,566.00
2023-03-15T21:28:29.168Z,539.00
2023-03-15T21:32:29.012Z,530.00
2023-03-15T21:36:28.816Z,546.00
2023-03-15T21:40:28.631Z,518.00
2023-03-15T21:44:28.513Z,534.00
2023-03-15T21:48:28.308Z,571.00
2023-03-15T21:52:28.339Z,602.00
2023-03-15T21:56:28.084Z,554.00
2023-03-15T22:00:27.948Z,606.00
2023-03-15T22:04:27.857Z,576.00
2023-03-15T22:08:27.687Z,603.00
2023-03-15T22:12:27.577Z,585.00
2023-03-15T22:16:27.464Z,601.00
2023-03-15T22:20:27.504Z,524.00
2023-03-15T22:24:27.242Z,606.00
2023-03-15T22:28:27.124Z,653.00
2023-03-15T22:32:27.047Z,624.00
2023-03-15T22:36:26.674Z,607.00
2023-03-15T22:40:26.757Z,636.00
2023-03-15T22:44:25.915Z,617.00
2023-03-15T22:48:25.568Z,639.00
2023-03-15T22:52:25.196Z,661.00
2023-03-15T22:56:24.848Z,541.00
2023-03-15T23:00:24.677Z,616.00
2023-03-15T23:04:24.292Z,605.00
2023-03-15T23:08:23.871Z,659.00
2023-03-15T23:12:33.840Z,588.00
2023-03-15T23:16:24.469Z,639.00
2023-03-15T23:20:23.128Z,622.00
2023-03-15T23:24:22.845Z,630.00
2023-03-15T23:28:22.499Z,531.00
2023-03-15T23:32:22.151Z,629.00
2023-03-15T23:36:21.787Z,596.00
2023-03-15T23:40:21.465Z,653.00
2023-03-15T23:44:21.098Z,601.00
2023-03-15T23:48:20.764Z,518.00
2023-03-15T23:52:20.381Z,589.00
2023-03-15T23:56:20.023Z,611.00
